createdAt,value
2019-06-15T00:00:38.061Z,1007.99
2019-06-15T00:01:38.106Z,1007.92
2019-06-15T00:02:38.025Z,1007.91
2019-06-15T00:03:38.112Z,1007.93
2019-06-15T00:04:38.015Z,1007.87
2019-06-15T00:05:38.023Z,1007.81
2019-06-15T00:06:37.945Z,1007.78
2019-06-15T00:07:38.042Z,1007.70
2019-06-15T00:08:37.906Z,1007.71
2019-06-15T00:09:37.952Z,1007.67
2019-06-15T00:10:37.873Z,1007.67
2019-06-15T00:11:37.953Z,1007.69
2019-06-15T00:12:37.821Z,1007.72
2019-06-15T00:13:37.866Z,1007.77
2019-06-15T00:14:37.780Z,1007.83
2019-06-15T00:15:37.759Z,1007.90
2019-06-15T00:16:37.750Z,1007.94
2019-06-15T00:17:37.781Z,1007.89
2019-06-15T00:18:37.701Z,1007.90
2019-06-15T00:19:37.690Z,1007.84
2019-06-15T00:20:37.670Z,1007.86
2019-06-15T00:21:37.711Z,1007.81
2019-06-15T00:22:37.620Z,1007.77
2019-06-15T00:23:37.624Z,1007.69
2019-06-15T00:24:37.572Z,1007.59
2019-06-15T00:25:37.631Z,1007.55
2019-06-15T00:26:37.544Z,1007.46
2019-06-15T00:27:37.539Z,1007.39
2019-06-15T00:28:37.496Z,1007.31
2019-06-15T00:29:37.562Z,1007.27
2019-06-15T00:30:37.463Z,1007.26
2019-06-15T00:31:37.431Z,1007.21
2019-06-15T00:32:37.491Z,1007.18
2019-06-15T00:33:37.415Z,1007.12
2019-06-15T00:34:37.480Z,1007.05
2019-06-15T00:35:37.352Z,1007.03
2019-06-15T00:36:37.330Z,1007.05
2019-06-15T00:37:37.312Z,1007.03
2019-06-15T00:38:37.400Z,1007.05
2019-06-15T00:39:37.283Z,1007.01
2019-06-15T00:40:37.314Z,1006.95
2019-06-15T00:41:37.244Z,1006.90
2019-06-15T00:42:37.211Z,1006.82
2019-06-15T00:43:37.241Z,1006.72
2019-06-15T00:44:37.171Z,1006.64
2019-06-15T00:45:37.242Z,1006.59
2019-06-15T00:46:37.130Z,1006.47
2019-06-15T00:47:37.110Z,1006.38
2019-06-15T00:48:37.161Z,1006.27
2019-06-15T00:49:37.071Z,1006.23
2019-06-15T00:50:37.080Z,1006.19
2019-06-15T00:51:37.031Z,1006.16
2019-06-15T00:52:37.009Z,1006.10
2019-06-15T00:53:37.005Z,1006.07
2019-06-15T00:54:49.731Z,1006.04
2019-06-15T00:55:36.946Z,1006.05
2019-06-15T00:56:37.000Z,1006.04
2019-06-15T00:57:36.905Z,1006.04
2019-06-15T00:58:36.921Z,1006.05
2019-06-15T00:59:36.863Z,1006.06
2019-06-15T01:00:36.933Z,1006.06
2019-06-15T01:01:36.835Z,1006.11
2019-06-15T01:02:36.840Z,1006.15
2019-06-15T01:03:36.841Z,1006.17
2019-06-15T01:04:36.763Z,1006.25
2019-06-15T01:05:36.763Z,1006.30
2019-06-15T01:06:36.732Z,1006.39
2019-06-15T01:07:36.772Z,1006.46
2019-06-15T01:08:37.694Z,1006.51
2019-06-15T01:09:36.661Z,1006.52
2019-06-15T01:10:36.681Z,1006.50
2019-06-15T01:11:36.611Z,1006.53
2019-06-15T01:12:36.702Z,1006.61
2019-06-15T01:13:36.579Z,1006.60
2019-06-15T01:14:36.613Z,1006.57
2019-06-15T01:15:36.543Z,1006.58
2019-06-15T01:16:36.622Z,1006.60
2019-06-15T01:17:36.493Z,1006.57
2019-06-15T01:18:36.538Z,1006.59
2019-06-15T01:19:36.532Z,1006.57
2019-06-15T01:20:36.432Z,1006.56
2019-06-15T01:21:36.442Z,1006.59
2019-06-15T01:22:36.393Z,1006.58
2019-06-15T01:23:36.463Z,1006.59
2019-06-15T01:24:36.360Z,1006.58
2019-06-15T01:25:36.336Z,1006.58
2019-06-15T01:26:36.372Z,1006.61
2019-06-15T01:27:36.282Z,1006.61
2019-06-15T01:28:36.282Z,1006.61
2019-06-15T01:29:36.254Z,1006.58
2019-06-15T01:30:36.300Z,1006.65
2019-06-15T01:31:36.201Z,1006.66
2019-06-15T01:32:36.210Z,1006.70
2019-06-15T01:33:36.164Z,1006.73
2019-06-15T01:34:36.222Z,1006.72
2019-06-15T01:35:36.112Z,1006.73
2019-06-15T01:36:36.150Z,1006.74
2019-06-15T01:37:36.082Z,1006.74
2019-06-15T01:38:36.142Z,1006.71
2019-06-15T01:39:36.042Z,1006.74
2019-06-15T01:40:36.011Z,1006.71
2019-06-15T01:41:36.060Z,1006.71
2019-06-15T01:42:35.973Z,1006.71
2019-06-15T01:43:35.970Z,1006.75
2019-06-15T01:44:35.929Z,1006.79
2019-06-15T01:45:35.911Z,1006.81
2019-06-15T01:46:35.892Z,1006.84
2019-06-15T01:47:35.895Z,1006.87
2019-06-15T01:48:35.858Z,1006.89
2019-06-15T01:49:35.912Z,1006.86
2019-06-15T01:50:35.804Z,1006.87
2019-06-15T01:51:35.783Z,1006.90
2019-06-15T01:52:35.823Z,1006.90
2019-06-15T01:53:35.740Z,1006.85
2019-06-15T01:54:35.832Z,1006.84
2019-06-15T01:55:35.701Z,1006.86
2019-06-15T01:56:35.688Z,1006.80
2019-06-15T01:57:35.755Z,1006.85
2019-06-15T01:58:35.649Z,1006.78
2019-06-15T01:59:35.661Z,1006.82
2019-06-15T02:00:35.590Z,1006.83
2019-06-15T02:01:35.589Z,1006.88
2019-06-15T02:02:35.557Z,1006.88
2019-06-15T02:03:35.592Z,1006.92
2019-06-15T02:04:35.512Z,1006.93
2019-06-15T02:05:35.596Z,1006.87
2019-06-15T02:06:35.483Z,1006.85
2019-06-15T02:07:35.511Z,1006.81
2019-06-15T02:08:35.430Z,1006.83
2019-06-15T02:09:35.524Z,1006.86
2019-06-15T02:10:35.386Z,1006.83
2019-06-15T02:11:35.433Z,1006.84
2019-06-15T02:12:35.347Z,1006.79
2019-06-15T02:13:35.352Z,1006.73
2019-06-15T02:14:35.303Z,1006.70
2019-06-15T02:15:35.352Z,1006.68
2019-06-15T02:16:35.262Z,1006.71
2019-06-15T02:17:35.242Z,1006.69
2019-06-15T02:18:35.221Z,1006.75
2019-06-15T02:19:35.274Z,1006.78
2019-06-15T02:20:35.182Z,1006.77
2019-06-15T02:21:35.197Z,1006.76
2019-06-15T02:22:35.132Z,1006.79
2019-06-15T02:23:35.206Z,1006.79
2019-06-15T02:24:35.103Z,1006.82
2019-06-15T02:25:36.579Z,1006.85
2019-06-15T02:26:35.051Z,1006.89
2019-06-15T02:27:35.124Z,1006.95
2019-06-15T02:28:35.002Z,1006.99
2019-06-15T02:29:35.041Z,1007.01
2019-06-15T02:30:35.007Z,1007.05
2019-06-15T02:31:35.051Z,1007.08
2019-06-15T02:32:34.922Z,1007.11
2019-06-15T02:33:34.915Z,1007.10
2019-06-15T02:34:34.881Z,1007.09
2019-06-15T02:35:34.963Z,1007.04
2019-06-15T02:36:34.847Z,1007.00
2019-06-15T02:37:34.872Z,1006.97
2019-06-15T02:38:34.880Z,1006.92
2019-06-15T02:39:34.774Z,1006.85
2019-06-15T02:40:34.815Z,1006.80
2019-06-15T02:41:34.745Z,1006.71
2019-06-15T02:42:34.803Z,1006.53
2019-06-15T02:43:34.691Z,1006.32
2019-06-15T02:44:34.671Z,1006.17
2019-06-15T02:45:34.741Z,1006.06
2019-06-15T02:46:34.644Z,1005.93
2019-06-15T02:47:34.631Z,1005.82
2019-06-15T02:48:34.592Z,1005.72
2019-06-15T02:49:34.562Z,1005.61
2019-06-15T02:50:34.543Z,1005.62
2019-06-15T02:51:34.572Z,1005.66
2019-06-15T02:52:34.504Z,1005.76
2019-06-15T02:53:34.585Z,1005.94
2019-06-15T02:54:34.471Z,1006.02
2019-06-15T02:55:34.440Z,1006.07
2019-06-15T02:56:34.480Z,1006.12
2019-06-15T02:57:34.401Z,1006.07
2019-06-15T02:58:34.390Z,1006.02
2019-06-15T02:59:34.351Z,1005.89
2019-06-15T03:00:34.416Z,1005.81
2019-06-15T03:01:34.312Z,1005.73
2019-06-15T03:02:34.312Z,1005.67
2019-06-15T03:03:34.262Z,1005.65
2019-06-15T03:04:34.330Z,1005.63
2019-06-15T03:05:34.344Z,1005.67
2019-06-15T03:06:34.200Z,1005.69
2019-06-15T03:07:34.243Z,1005.79
2019-06-15T03:08:34.169Z,1005.93
2019-06-15T03:09:34.163Z,1005.96
2019-06-15T03:10:34.122Z,1006.03
2019-06-15T03:11:34.104Z,1006.07
2019-06-15T03:12:34.172Z,1006.07
2019-06-15T03:13:34.054Z,1006.12
2019-06-15T03:14:34.081Z,1006.12
2019-06-15T03:15:34.011Z,1006.09
2019-06-15T03:16:34.103Z,1006.09
2019-06-15T03:17:33.976Z,1006.08
2019-06-15T03:18:34.011Z,1006.08
2019-06-15T03:19:33.920Z,1006.05
2019-06-15T03:20:33.924Z,1006.08
2019-06-15T03:21:33.889Z,1006.09
2019-06-15T03:22:33.931Z,1006.06
2019-06-15T03:23:33.910Z,1006.02
2019-06-15T03:24:33.853Z,1006.02
2019-06-15T03:25:33.805Z,1005.99
2019-06-15T03:26:33.771Z,1005.98
2019-06-15T03:27:33.751Z,1005.95
2019-06-15T03:28:33.764Z,1005.87
2019-06-15T03:29:33.713Z,1005.81
2019-06-15T03:30:33.882Z,1005.77
2019-06-15T03:31:33.690Z,1005.77
2019-06-15T03:32:33.693Z,1005.80
2019-06-15T03:33:33.621Z,1005.84
2019-06-15T03:34:33.703Z,1005.92
2019-06-15T03:35:33.582Z,1006.03
2019-06-15T03:36:33.617Z,1006.24
2019-06-15T03:37:33.543Z,1006.46
2019-06-15T03:38:40.835Z,1006.78
2019-06-15T03:40:37.571Z,1007.13
2019-06-15T03:41:37.481Z,1007.23
2019-06-15T03:43:30.511Z,1007.38
2019-06-15T03:44:30.430Z,1007.53
2019-06-15T03:46:34.534Z,1007.60
2019-06-15T03:47:34.503Z,1007.46
2019-06-15T03:49:38.556Z,1007.05
2019-06-15T03:50:38.450Z,1006.84
2019-06-15T03:52:42.492Z,1007.02
2019-06-15T03:53:42.463Z,1007.18
2019-06-15T03:55:46.570Z,1007.19
2019-06-15T03:56:46.484Z,1007.19
2019-06-15T03:58:50.587Z,1007.04
2019-06-15T03:59:50.502Z,1007.03
2019-06-15T04:01:54.590Z,1007.09
2019-06-15T04:02:54.512Z,1007.08
2019-06-15T04:04:58.563Z,1007.12
2019-06-15T04:05:58.582Z,1007.10
2019-06-15T04:08:02.611Z,1006.92
2019-06-15T04:09:02.540Z,1006.95
2019-06-15T04:11:06.634Z,1006.91
2019-06-15T04:12:06.542Z,1006.95
2019-06-15T04:14:10.595Z,1006.99
2019-06-15T04:15:10.551Z,1006.99
2019-06-15T04:17:14.662Z,1006.94
2019-06-15T04:18:14.569Z,1006.96
2019-06-15T04:20:18.663Z,1006.96
2019-06-15T04:21:18.579Z,1006.99
2019-06-15T04:23:11.513Z,1007.05
2019-06-15T04:24:11.430Z,1007.07
2019-06-15T04:26:15.531Z,1007.00
2019-06-15T04:27:15.440Z,1007.02
2019-06-15T04:29:08.602Z,1007.02
2019-06-15T04:30:08.551Z,1007.08
2019-06-15T04:32:12.606Z,1007.15
2019-06-15T04:33:12.512Z,1007.17
2019-06-15T04:35:16.619Z,1007.19
2019-06-15T04:36:16.536Z,1007.22
2019-06-15T04:38:20.620Z,1007.24
2019-06-15T04:39:20.536Z,1007.27
2019-06-15T04:41:24.630Z,1007.21
2019-06-15T04:42:24.564Z,1007.19
2019-06-15T04:44:28.646Z,1007.06
2019-06-15T04:45:28.562Z,1007.05
2019-06-15T04:47:32.662Z,1007.06
2019-06-15T04:48:32.571Z,1007.05
2019-06-15T04:50:36.674Z,1007.09
2019-06-15T04:51:36.645Z,1007.10
2019-06-15T04:53:29.523Z,1007.18
2019-06-15T04:54:29.453Z,1007.21
2019-06-15T04:56:22.582Z,1007.17
2019-06-15T04:57:22.502Z,1007.20
2019-06-15T04:59:26.955Z,1007.17
2019-06-15T05:00:26.912Z,1007.13
2019-06-15T05:02:31.022Z,1007.14
2019-06-15T05:03:30.921Z,1007.14
2019-06-15T05:05:35.033Z,1007.20
2019-06-15T05:06:34.940Z,1007.15
2019-06-15T05:08:28.081Z,1007.19
2019-06-15T05:09:28.002Z,1007.19
2019-06-15T05:11:32.093Z,1007.20
2019-06-15T05:12:32.000Z,1007.17
2019-06-15T05:14:36.122Z,1007.19
2019-06-15T05:15:36.022Z,1007.20
2019-06-15T05:17:40.121Z,1007.21
2019-06-15T05:18:40.032Z,1007.22
2019-06-15T05:20:44.130Z,1007.22
2019-06-15T05:21:44.041Z,1007.24
2019-06-15T05:23:36.974Z,1007.16
2019-06-15T05:24:36.957Z,1007.19
2019-06-15T05:26:40.990Z,1007.16
2019-06-15T05:27:40.912Z,1007.13
2019-06-15T05:29:45.012Z,1007.16
2019-06-15T05:30:44.922Z,1007.15
2019-06-15T05:32:49.023Z,1007.18
2019-06-15T05:33:48.932Z,1007.22
2019-06-15T05:35:52.972Z,1007.15
2019-06-15T05:36:53.005Z,1007.13
2019-06-15T05:38:57.042Z,1007.14
2019-06-15T05:39:56.972Z,1007.14
2019-06-15T05:42:01.050Z,1007.15
2019-06-15T05:43:00.997Z,1007.18
2019-06-15T05:45:05.071Z,1007.21
2019-06-15T05:46:05.000Z,1007.20
2019-06-15T05:48:09.081Z,1007.30
2019-06-15T05:49:09.003Z,1007.27
2019-06-15T05:51:02.152Z,1007.30
2019-06-15T05:52:02.053Z,1007.31
2019-06-15T05:53:55.189Z,1007.30
2019-06-15T05:54:55.116Z,1007.30
2019-06-15T05:56:48.256Z,1007.30
2019-06-15T05:57:48.156Z,1007.31
2019-06-15T05:59:52.261Z,1007.36
2019-06-15T06:00:52.240Z,1007.38
2019-06-15T06:02:56.293Z,1007.43
2019-06-15T06:03:56.180Z,1007.46
2019-06-15T06:06:00.232Z,1007.42
2019-06-15T06:07:00.204Z,1007.48
2019-06-15T06:09:04.314Z,1007.50
2019-06-15T06:10:04.212Z,1007.46
2019-06-15T06:12:08.323Z,1007.55
2019-06-15T06:13:08.225Z,1007.52
2019-06-15T06:15:12.320Z,1007.53
2019-06-15T06:16:12.232Z,1007.48
2019-06-15T06:18:16.330Z,1007.55
2019-06-15T06:19:16.252Z,1007.59
2019-06-15T06:21:20.347Z,1007.61
2019-06-15T06:22:20.263Z,1007.60
2019-06-15T06:24:24.310Z,1007.63
2019-06-15T06:25:24.332Z,1007.65
2019-06-15T06:27:17.375Z,1007.65
2019-06-15T06:28:17.332Z,1007.69
2019-06-15T06:30:21.371Z,1007.66
2019-06-15T06:31:21.391Z,1007.68
2019-06-15T06:33:15.305Z,1007.71
2019-06-15T06:34:14.202Z,1007.70
2019-06-15T06:36:18.294Z,1007.69
2019-06-15T06:37:18.211Z,1007.72
2019-06-15T06:39:22.300Z,1007.73
2019-06-15T06:40:22.225Z,1007.76
2019-06-15T06:42:26.314Z,1007.74
2019-06-15T06:43:26.297Z,1007.78
2019-06-15T06:45:19.374Z,1007.79
2019-06-15T06:46:19.303Z,1007.82
2019-06-15T06:48:23.392Z,1007.84
2019-06-15T06:49:23.301Z,1007.81
2019-06-15T06:51:27.404Z,1007.79
2019-06-15T06:52:27.310Z,1007.81
2019-06-15T06:54:31.418Z,1007.84
2019-06-15T06:55:31.346Z,1007.89
2019-06-15T06:57:35.421Z,1007.89
2019-06-15T06:58:35.355Z,1007.89
2019-06-15T07:00:39.392Z,1007.89
2019-06-15T07:01:39.409Z,1007.85
2019-06-15T07:03:32.427Z,1007.76
2019-06-15T07:04:32.302Z,1007.78
2019-06-15T07:06:36.392Z,1007.72
2019-06-15T07:07:36.312Z,1007.71
2019-06-15T07:09:40.413Z,1007.73
2019-06-15T07:10:40.336Z,1007.71
2019-06-15T07:12:33.473Z,1007.76
2019-06-15T07:13:33.398Z,1007.76
2019-06-15T07:15:37.482Z,1007.72
2019-06-15T07:16:37.391Z,1007.73
2019-06-15T07:18:41.493Z,1007.72
2019-06-15T07:19:41.412Z,1007.73
2019-06-15T07:21:45.515Z,1007.73
2019-06-15T07:22:45.440Z,1007.77
2019-06-15T07:24:49.525Z,1007.83
2019-06-15T07:25:49.430Z,1007.82
2019-06-15T07:28:07.218Z,1007.83
2019-06-15T07:28:53.453Z,1007.79
2019-06-15T07:30:57.561Z,1007.81
2019-06-15T07:31:57.461Z,1007.90
2019-06-15T07:33:50.499Z,1007.80
2019-06-15T07:34:50.413Z,1007.80
2019-06-15T07:36:54.511Z,1007.88
2019-06-15T07:37:54.432Z,1007.89
2019-06-15T07:39:58.546Z,1007.81
2019-06-15T07:40:58.443Z,1007.87
2019-06-15T07:43:02.557Z,1007.86
2019-06-15T07:44:02.457Z,1007.88
2019-06-15T07:45:55.595Z,1007.85
2019-06-15T07:46:55.511Z,1007.89
2019-06-15T07:48:59.612Z,1007.92
2019-06-15T07:49:59.522Z,1007.88
2019-06-15T07:51:52.681Z,1007.92
2019-06-15T07:52:52.588Z,1007.92
2019-06-15T07:54:56.673Z,1007.95
2019-06-15T07:55:56.585Z,1007.95
2019-06-15T07:57:49.822Z,1007.94
2019-06-15T07:58:49.714Z,1007.95
2019-06-15T08:00:55.190Z,1007.98
2019-06-15T08:01:55.143Z,1008.05
2019-06-15T08:03:47.984Z,1008.10
2019-06-15T08:04:47.875Z,1008.06
2019-06-15T08:06:52.102Z,1008.15
2019-06-15T08:07:51.902Z,1008.13
2019-06-15T08:09:56.011Z,1008.19
2019-06-15T08:10:55.922Z,1008.21
2019-06-15T08:12:49.285Z,1008.23
2019-06-15T08:13:49.083Z,1008.31
2019-06-15T08:15:53.292Z,1008.26
2019-06-15T08:16:53.094Z,1008.26
2019-06-15T08:18:57.706Z,1008.27
2019-06-15T08:19:57.503Z,1008.28
2019-06-15T08:20:57.523Z,1008.32
2019-06-15T08:21:57.500Z,1008.32
2019-06-15T08:22:57.555Z,1008.41
2019-06-15T08:23:57.690Z,1008.40
2019-06-15T08:24:57.393Z,1008.42
2019-06-15T08:25:57.386Z,1008.44
2019-06-15T08:26:57.350Z,1008.46
2019-06-15T08:27:57.328Z,1008.43
2019-06-15T08:28:57.329Z,1008.49
2019-06-15T08:29:57.292Z,1008.49
2019-06-15T08:30:57.251Z,1008.51
2019-06-15T08:31:57.246Z,1008.64
2019-06-15T08:32:57.257Z,1008.69
2019-06-15T08:33:57.194Z,1008.73
2019-06-15T08:34:57.192Z,1008.75
2019-06-15T08:35:57.153Z,1008.71
2019-06-15T08:36:57.167Z,1008.74
2019-06-15T08:37:57.138Z,1008.75
2019-06-15T08:38:57.117Z,1008.81
2019-06-15T08:39:57.083Z,1008.76
2019-06-15T08:40:57.060Z,1008.88
2019-06-15T08:41:57.125Z,1008.89
2019-06-15T08:42:57.001Z,1008.96
2019-06-15T08:43:56.975Z,1008.89
2019-06-15T08:44:56.972Z,1008.93
2019-06-15T08:45:56.928Z,1008.99
2019-06-15T08:46:59.315Z,1008.96
2019-06-15T08:47:56.916Z,1009.02
2019-06-15T08:48:56.962Z,1008.94
2019-06-15T08:49:56.871Z,1009.04
2019-06-15T08:50:56.847Z,1009.11
2019-06-15T08:51:56.812Z,1009.13
2019-06-15T08:52:56.814Z,1009.10
2019-06-15T08:53:56.766Z,1009.20
2019-06-15T08:54:56.766Z,1009.17
2019-06-15T08:55:56.735Z,1009.22
2019-06-15T08:56:56.722Z,1009.24
2019-06-15T08:57:56.690Z,1009.26
2019-06-15T08:58:56.647Z,1009.33
2019-06-15T08:59:56.664Z,1009.36
2019-06-15T09:00:56.657Z,1009.39
2019-06-15T09:01:56.646Z,1009.49
2019-06-15T09:02:56.602Z,1009.58
2019-06-15T09:03:56.572Z,1009.51
2019-06-15T09:04:56.518Z,1009.62
2019-06-15T09:05:56.511Z,1009.64
2019-06-15T09:06:56.497Z,1009.74
2019-06-15T09:07:56.473Z,1009.60
2019-06-15T09:08:56.480Z,1009.56
2019-06-15T09:09:56.451Z,1009.59
2019-06-15T09:10:56.384Z,1009.66
2019-06-15T09:11:56.418Z,1009.73
2019-06-15T09:12:56.387Z,1009.72
2019-06-15T09:13:56.354Z,1009.75
2019-06-15T09:14:56.312Z,1009.72
2019-06-15T09:15:56.323Z,1009.64
2019-06-15T09:16:56.270Z,1009.71
2019-06-15T09:17:56.264Z,1009.66
2019-06-15T09:18:57.535Z,1009.73
2019-06-15T09:19:56.207Z,1009.71
2019-06-15T09:20:56.209Z,1009.68
2019-06-15T09:21:56.200Z,1009.65
2019-06-15T09:22:56.122Z,1009.70
2019-06-15T09:23:56.129Z,1009.63
2019-06-15T09:24:56.081Z,1009.73
2019-06-15T09:25:56.079Z,1009.78
2019-06-15T09:26:56.073Z,1009.83
2019-06-15T09:27:56.021Z,1009.90
2019-06-15T09:29:10.004Z,1009.96
2019-06-15T09:29:55.980Z,1009.95
2019-06-15T09:30:55.996Z,1009.91
2019-06-15T09:31:55.932Z,1009.92
2019-06-15T09:32:55.965Z,1009.93
2019-06-15T09:33:55.911Z,1009.90
2019-06-15T09:34:55.892Z,1009.99
2019-06-15T09:35:55.864Z,1009.90
2019-06-15T09:36:55.875Z,1009.94
2019-06-15T09:37:55.807Z,1009.96
2019-06-15T09:39:03.106Z,1010.01
2019-06-15T09:40:59.864Z,1009.97
2019-06-15T09:41:59.772Z,1009.97
2019-06-15T09:44:03.862Z,1009.95
2019-06-15T09:45:03.784Z,1010.03
2019-06-15T09:47:07.897Z,1010.04
2019-06-15T09:48:07.816Z,1010.04
2019-06-15T09:50:11.899Z,1010.07
2019-06-15T09:51:11.812Z,1010.07
2019-06-15T09:53:04.808Z,1010.09
2019-06-15T09:54:04.815Z,1010.12
2019-06-15T09:56:08.862Z,1010.18
2019-06-15T09:57:08.775Z,1010.18
2019-06-15T09:59:25.277Z,1010.23
2019-06-15T10:00:12.784Z,1010.33
2019-06-15T10:02:17.011Z,1010.41
2019-06-15T10:03:16.812Z,1010.44
2019-06-15T10:05:20.896Z,1010.44
2019-06-15T10:06:20.821Z,1010.51
2019-06-15T10:08:24.915Z,1010.58
2019-06-15T10:09:24.826Z,1010.49
2019-06-15T10:11:28.895Z,1010.53
2019-06-15T10:12:28.856Z,1010.47
2019-06-15T10:14:32.887Z,1010.60
2019-06-15T10:15:32.853Z,1010.66
2019-06-15T10:17:36.933Z,1010.63
2019-06-15T10:18:38.780Z,1010.69
2019-06-15T10:20:41.103Z,1010.69
2019-06-15T10:21:40.912Z,1010.75
2019-06-15T10:23:33.962Z,1010.65
2019-06-15T10:24:33.888Z,1010.75
2019-06-15T10:26:38.924Z,1010.73
2019-06-15T10:27:38.718Z,1010.86
2019-06-15T10:29:43.753Z,1010.82
2019-06-15T10:30:43.533Z,1010.82
2019-06-15T10:32:48.564Z,1010.87
2019-06-15T10:33:48.372Z,1010.93
2019-06-15T10:35:53.348Z,1010.91
2019-06-15T10:36:53.303Z,1010.92
2019-06-15T10:38:57.414Z,1011.00
2019-06-15T10:39:57.327Z,1010.95
2019-06-15T10:42:01.439Z,1011.02
2019-06-15T10:43:01.357Z,1011.07
2019-06-15T10:45:05.441Z,1011.03
2019-06-15T10:46:05.355Z,1011.08
2019-06-15T10:48:09.463Z,1011.16
2019-06-15T10:49:09.370Z,1011.23
2019-06-15T10:51:13.472Z,1011.31
2019-06-15T10:52:13.449Z,1011.16
2019-06-15T10:54:17.483Z,1011.25
2019-06-15T10:55:17.442Z,1011.25
2019-06-15T10:57:21.454Z,1011.23
2019-06-15T10:58:21.413Z,1011.29
2019-06-15T11:00:25.523Z,1011.36
2019-06-15T11:01:25.431Z,1011.32
2019-06-15T11:03:18.526Z,1011.29
2019-06-15T11:04:18.435Z,1011.22
2019-06-15T11:06:22.485Z,1011.25
2019-06-15T11:07:22.403Z,1011.34
2019-06-15T11:09:26.501Z,1011.36
2019-06-15T11:10:26.438Z,1011.27
2019-06-15T11:12:45.102Z,1011.35
2019-06-15T11:13:30.452Z,1011.39
2019-06-15T11:15:35.352Z,1011.42
2019-06-15T11:16:35.262Z,1011.37
2019-06-15T11:18:40.123Z,1011.37
2019-06-15T11:19:40.118Z,1011.42
2019-06-15T11:21:33.357Z,1011.40
2019-06-15T11:22:33.263Z,1011.43
2019-06-15T11:24:37.565Z,1011.48
2019-06-15T11:25:37.386Z,1011.49
2019-06-15T11:27:41.681Z,1011.51
2019-06-15T11:28:41.656Z,1011.51
2019-06-15T11:30:45.818Z,1011.52
2019-06-15T11:31:45.621Z,1011.48
2019-06-15T11:33:39.693Z,1011.45
2019-06-15T11:34:39.500Z,1011.45
2019-06-15T11:36:43.792Z,1011.50
2019-06-15T11:37:43.625Z,1011.48
2019-06-15T11:39:47.821Z,1011.58
2019-06-15T11:40:47.651Z,1011.55
2019-06-15T11:42:51.852Z,1011.57
2019-06-15T11:43:51.757Z,1011.60
2019-06-15T11:45:55.942Z,1011.58
2019-06-15T11:46:55.855Z,1011.64
2019-06-15T11:49:00.823Z,1011.68
2019-06-15T11:50:00.792Z,1011.65
2019-06-15T11:52:05.662Z,1011.63
2019-06-15T11:53:05.703Z,1011.65
2019-06-15T11:55:09.731Z,1011.67
2019-06-15T11:56:09.644Z,1011.73
2019-06-15T11:58:14.561Z,1011.75
2019-06-15T11:59:14.482Z,1011.75
2019-06-15T12:01:19.412Z,1011.77
2019-06-15T12:02:19.322Z,1011.78
2019-06-15T12:04:24.267Z,1011.76
2019-06-15T12:05:24.159Z,1011.79
2019-06-15T12:07:29.079Z,1011.83
2019-06-15T12:08:29.010Z,1011.80
2019-06-15T12:10:33.024Z,1011.87
2019-06-15T12:11:32.991Z,1011.83
2019-06-15T12:13:26.057Z,1011.76
2019-06-15T12:14:25.941Z,1011.83
2019-06-15T12:16:30.875Z,1011.77
2019-06-15T12:17:30.782Z,1011.75
2019-06-15T12:19:35.701Z,1011.74
2019-06-15T12:20:38.289Z,1011.78
2019-06-15T12:22:39.738Z,1011.73
2019-06-15T12:23:39.645Z,1011.73
2019-06-15T12:25:44.574Z,1011.71
2019-06-15T12:26:44.523Z,1011.75
2019-06-15T12:28:49.437Z,1011.88
2019-06-15T12:29:49.340Z,1011.80
2019-06-15T12:31:54.161Z,1011.91
2019-06-15T12:32:54.203Z,1011.90
2019-06-15T12:34:59.062Z,1011.90
2019-06-15T12:35:58.972Z,1011.84
2019-06-15T12:38:03.903Z,1011.90
2019-06-15T12:39:03.813Z,1011.93
2019-06-15T12:41:07.917Z,1011.94
2019-06-15T12:42:07.821Z,1011.91
2019-06-15T12:43:07.893Z,1011.91
2019-06-15T12:44:07.809Z,1011.97
2019-06-15T12:45:07.802Z,1011.89
2019-06-15T12:46:07.751Z,1011.83
2019-06-15T12:47:07.814Z,1011.87
2019-06-15T12:48:07.724Z,1011.82
2019-06-15T12:49:07.833Z,1011.83
2019-06-15T12:50:07.917Z,1011.89
2019-06-15T12:51:07.743Z,1011.83
2019-06-15T12:52:07.664Z,1011.90
2019-06-15T12:53:07.656Z,1011.91
2019-06-15T12:54:07.620Z,1011.99
2019-06-15T12:55:07.674Z,1011.95
2019-06-15T12:56:07.590Z,1011.98
2019-06-15T12:57:07.683Z,1012.00
2019-06-15T12:58:07.566Z,1011.98
2019-06-15T12:59:07.594Z,1011.96
2019-06-15T13:00:07.523Z,1011.93
2019-06-15T13:01:07.616Z,1011.91
2019-06-15T13:02:07.495Z,1011.96
2019-06-15T13:03:07.555Z,1011.84
2019-06-15T13:04:07.464Z,1011.95
2019-06-15T13:05:07.546Z,1011.92
2019-06-15T13:06:07.414Z,1011.84
2019-06-15T13:07:07.443Z,1011.93
2019-06-15T13:08:07.382Z,1011.85
2019-06-15T13:09:07.372Z,1011.87
2019-06-15T13:10:07.353Z,1011.88
2019-06-15T13:11:07.384Z,1011.88
2019-06-15T13:12:07.310Z,1011.91
2019-06-15T13:13:07.387Z,1011.91
2019-06-15T13:14:07.403Z,1011.83
2019-06-15T13:15:07.273Z,1011.92
2019-06-15T13:16:07.313Z,1011.96
2019-06-15T13:17:07.240Z,1012.01
2019-06-15T13:18:07.322Z,1011.90
2019-06-15T13:19:07.209Z,1011.90
2019-06-15T13:20:07.231Z,1011.91
2019-06-15T13:21:07.172Z,1011.78
2019-06-15T13:22:07.242Z,1011.82
2019-06-15T13:23:07.161Z,1011.92
2019-06-15T13:24:07.161Z,1011.90
2019-06-15T13:25:07.167Z,1011.88
2019-06-15T13:26:07.092Z,1011.95
2019-06-15T13:27:07.172Z,1011.92
2019-06-15T13:28:07.082Z,1011.91
2019-06-15T13:29:07.091Z,1011.87
2019-06-15T13:30:07.098Z,1011.88
2019-06-15T13:31:17.803Z,1011.86
2019-06-15T13:32:06.995Z,1011.97
2019-06-15T13:33:07.016Z,1011.94
2019-06-15T13:34:06.952Z,1011.98
2019-06-15T13:35:07.047Z,1012.01
2019-06-15T13:36:06.957Z,1011.92
2019-06-15T13:37:06.942Z,1012.03
2019-06-15T13:38:06.895Z,1011.95
2019-06-15T13:39:06.966Z,1011.95
2019-06-15T13:40:06.863Z,1011.94
2019-06-15T13:41:06.843Z,1012.01
2019-06-15T13:42:06.872Z,1012.01
2019-06-15T13:43:06.813Z,1012.05
2019-06-15T13:44:06.898Z,1011.91
2019-06-15T13:45:06.786Z,1012.00
2019-06-15T13:46:06.754Z,1011.95
2019-06-15T13:47:06.810Z,1011.91
2019-06-15T13:48:06.723Z,1012.01
2019-06-15T13:49:06.832Z,1012.04
2019-06-15T13:50:06.741Z,1012.03
2019-06-15T13:51:06.700Z,1012.19
2019-06-15T13:52:06.674Z,1012.07
2019-06-15T13:53:06.755Z,1012.07
2019-06-15T13:54:06.623Z,1012.07
2019-06-15T13:55:06.663Z,1012.13
2019-06-15T13:56:06.595Z,1012.14
2019-06-15T13:57:06.581Z,1012.20
2019-06-15T13:58:06.588Z,1012.23
2019-06-15T13:59:06.542Z,1012.28
2019-06-15T14:00:06.619Z,1012.21
2019-06-15T14:01:06.505Z,1012.19
2019-06-15T14:02:06.499Z,1012.16
2019-06-15T14:03:06.511Z,1012.20
2019-06-15T14:04:06.458Z,1012.25
2019-06-15T14:05:06.528Z,1012.04
2019-06-15T14:06:06.423Z,1012.10
2019-06-15T14:07:06.400Z,1012.07
2019-06-15T14:08:06.382Z,1012.09
2019-06-15T14:09:06.463Z,1012.10
2019-06-15T14:10:06.352Z,1012.09
2019-06-15T14:11:06.362Z,1012.21
2019-06-15T14:12:06.325Z,1012.13
2019-06-15T14:13:06.310Z,1012.13
2019-06-15T14:14:06.384Z,1012.27
2019-06-15T14:15:06.264Z,1012.26
2019-06-15T14:16:06.303Z,1012.24
2019-06-15T14:17:06.231Z,1012.23
2019-06-15T14:18:06.217Z,1012.25
2019-06-15T14:19:06.208Z,1012.28
2019-06-15T14:20:06.243Z,1012.27
2019-06-15T14:21:06.163Z,1012.22
2019-06-15T14:22:06.251Z,1012.25
2019-06-15T14:23:06.136Z,1012.26
2019-06-15T14:24:06.163Z,1012.27
2019-06-15T14:25:06.101Z,1012.17
2019-06-15T14:26:06.179Z,1012.13
2019-06-15T14:27:06.083Z,1012.13
2019-06-15T14:28:06.092Z,1012.10
2019-06-15T14:29:06.086Z,1012.15
2019-06-15T14:30:06.166Z,1012.14
2019-06-15T14:31:06.017Z,1012.17
2019-06-15T14:32:07.055Z,1012.14
2019-06-15T14:33:05.966Z,1012.13
2019-06-15T14:34:05.966Z,1012.16
2019-06-15T14:35:06.041Z,1012.13
2019-06-15T14:36:05.956Z,1012.17
2019-06-15T14:37:06.976Z,1012.12
2019-06-15T14:38:05.903Z,1012.09
2019-06-15T14:39:06.296Z,1012.22
2019-06-15T14:40:05.892Z,1012.17
2019-06-15T14:41:05.880Z,1012.31
2019-06-15T14:42:05.822Z,1012.26
2019-06-15T14:43:06.001Z,1012.22
2019-06-15T14:44:05.794Z,1012.24